Time;durP1;ratioP1;P1;durP2;ratioP2;P2;SDS_P1;SDS_P2;PMS_P1;PMS_P2;Temp;Humidity;BMP_temperature;BMP_pressure;BME280_temperature;BME280_humidity;BME280_pressure;Samples;Min_cycle;Max_cycle;Signal;HPM_P1;HPM_P2
2022/05/27 00:04:44;;;;;;;19.65;17.55;;;;;;;;;;10426592;28;20229;-74
2022/05/27 00:09:45;;;;;;;23.80;18.48;;;;;;;;;;10381716;28;20248;-74
2022/05/27 00:14:46;;;;;;;19.35;17.48;;;;;;;;;;10404543;28;20722;-74
2022/05/27 00:19:47;;;;;;;19.55;17.65;;;;;;;;;;10416609;28;20301;-73
2022/05/27 00:24:48;;;;;;;19.95;16.27;;;;;;;;;;10410838;28;20796;-75
2022/05/27 00:29:49;;;;;;;19.27;16.00;;;;;;;;;;10417618;28;20202;-73
2022/05/27 00:34:50;;;;;;;16.25;14.75;;;;;;;;;;10429643;28;20213;-75
2022/05/27 00:39:51;;;;;;;18.33;13.10;;;;;;;;;;10446524;28;20206;-74
2022/05/27 00:44:52;;;;;;;13.77;12.48;;;;;;;;;;10446025;28;20205;-74
2022/05/27 00:49:56;;;;;;;13.23;12.13;;;;;;;;;;10434156;28;20240;-74
2022/05/27 00:54:57;;;;;;;12.00;10.82;;;;;;;;;;10433093;28;20190;-73
2022/05/27 01:00:02;;;;;;;12.25;11.05;;;;;;;;;;10440224;28;20190;-74
2022/05/27 01:05:04;;;;;;;11.60;10.73;;;;;;;;;;10429371;28;20260;-73
2022/05/27 01:10:07;;;;;;;12.35;11.25;;;;;;;;;;10453237;28;20223;-73
2022/05/27 01:15:08;;;;;;;13.13;12.07;;;;;;;;;;10449863;28;20205;-74
2022/05/27 01:20:18;;;;;;;13.00;11.80;;;;;;;;;;10429136;28;20209;-73
2022/05/27 01:25:48;;;;;;;12.57;11.48;;;;;;;;;;10418748;28;20201;-74
2022/05/27 01:31:01;;;;;;;12.68;11.68;;;;;;;;;;10455882;28;20605;-73
2022/05/27 01:36:05;;;;;;;11.88;11.02;;;;;;;;;;10446883;28;20217;-73
2022/05/27 01:41:06;;;;;;;13.40;12.05;;;;;;;;;;10431477;28;20792;-73
2022/05/27 01:46:14;;;;;;;13.65;12.52;;;;;;;;;;10417083;28;20190;-74
2022/05/27 01:51:20;;;;;;;13.93;12.80;;;;;;;;;;10433103;28;20224;-75
2022/05/27 01:56:39;;;;;;;12.13;11.23;;;;;;;;;;10431372;28;20855;-74
2022/05/27 02:01:44;;;;;;;11.90;10.80;;;;;;;;;;10449393;28;20245;-73
2022/05/27 02:06:47;;;;;;;11.23;10.10;;;;;;;;;;10433020;28;20254;-74
2022/05/27 02:11:50;;;;;;;10.82;10.02;;;;;;;;;;10451907;28;20202;-74
2022/05/27 02:16:58;;;;;;;10.43;9.57;;;;;;;;;;10434496;28;20198;-74
2022/05/27 02:22:06;;;;;;;11.05;9.80;;;;;;;;;;10429589;28;20391;-74
2022/05/27 02:27:10;;;;;;;10.63;8.98;;;;;;;;;;10441564;28;20193;-74
2022/05/27 02:32:17;;;;;;;9.82;9.07;;;;;;;;;;10441549;28;20693;-76
2022/05/27 02:37:44;;;;;;;10.35;9.60;;;;;;;;;;10443656;28;20205;-74
2022/05/27 02:43:04;;;;;;;9.88;9.02;;;;;;;;;;10447566;28;20210;-74
2022/05/27 02:48:05;;;;;;;10.82;8.82;;;;;;;;;;10449195;28;20256;-74
2022/05/27 02:53:12;;;;;;;9.73;9.02;;;;;;;;;;10447437;28;20199;-74
2022/05/27 02:58:13;;;;;;;10.05;9.20;;;;;;;;;;10427019;28;20241;-75
2022/05/27 03:03:14;;;;;;;10.27;9.25;;;;;;;;;;10440288;28;20214;-75
2022/05/27 03:08:20;;;;;;;10.48;9.57;;;;;;;;;;10415953;28;20264;-75
2022/05/27 03:13:25;;;;;;;10.25;9.55;;;;;;;;;;10415238;28;20210;-75
2022/05/27 03:18:36;;;;;;;9.57;8.98;;;;;;;;;;10441366;28;20195;-75
2022/05/27 03:23:55;;;;;;;8.30;7.70;;;;;;;;;;10412681;28;20210;-74
2022/05/27 03:29:02;;;;;;;7.82;7.32;;;;;;;;;;10423341;28;20284;-75
2022/05/27 03:34:08;;;;;;;11.73;7.72;;;;;;;;;;10441193;28;20313;-78
2022/05/27 03:39:45;;;;;;;6.40;5.97;;;;;;;;;;10431786;28;20203;-78
2022/05/27 03:45:04;;;;;;;4.68;4.35;;;;;;;;;;10294817;28;20726;-77
2022/05/27 03:50:05;;;;;;;3.75;3.60;;;;;;;;;;10452237;28;20691;-76
2022/05/27 03:55:08;;;;;;;8.52;6.70;;;;;;;;;;10406639;28;21075;-82
2022/05/27 04:00:10;;;;;;;1.70;1.60;;;;;;;;;;10442355;28;20301;-79
2022/05/27 04:05:16;;;;;;;2.33;2.03;;;;;;;;;;10455430;28;20226;-78
2022/05/27 04:10:17;;;;;;;1.50;1.40;;;;;;;;;;10411258;28;20214;-81
2022/05/27 04:15:19;;;;;;;1.73;1.73;;;;;;;;;;10446579;28;20848;-83
2022/05/27 04:20:20;;;;;;;2.28;1.80;;;;;;;;;;10453395;28;20213;-84
2022/05/27 04:25:21;;;;;;;1.95;1.85;;;;;;;;;;10423994;28;20217;-82
2022/05/27 04:30:24;;;;;;;2.50;2.25;;;;;;;;;;10415110;28;20989;-82
2022/05/27 04:35:25;;;;;;;2.40;1.40;;;;;;;;;;10444318;28;20233;-81
2022/05/27 04:40:26;;;;;;;1.60;1.50;;;;;;;;;;10450219;28;20202;-80
2022/05/27 04:45:27;;;;;;;2.38;1.30;;;;;;;;;;10462805;28;20206;-82
2022/05/27 04:50:28;;;;;;;1.33;1.20;;;;;;;;;;10446325;28;20213;-82
2022/05/27 04:55:30;;;;;;;1.48;1.10;;;;;;;;;;10417474;28;20260;-81
2022/05/27 05:00:34;;;;;;;1.33;1.23;;;;;;;;;;10481979;28;20198;-83
2022/05/27 05:05:35;;;;;;;4.65;1.30;;;;;;;;;;10483815;28;20238;-83
2022/05/27 05:10:36;;;;;;;1.83;1.35;;;;;;;;;;10446998;28;20293;-81
2022/05/27 05:15:37;;;;;;;1.00;1.00;;;;;;;;;;10463579;28;20846;-82
2022/05/27 05:20:38;;;;;;;1.40;1.40;;;;;;;;;;10475519;28;20710;-83
2022/05/27 05:25:39;;;;;;;1.33;1.33;;;;;;;;;;10449001;28;20206;-81
2022/05/27 05:30:40;;;;;;;1.60;1.60;;;;;;;;;;10487119;28;20233;-81
2022/05/27 05:35:42;;;;;;;1.30;1.20;;;;;;;;;;10493604;28;20596;-82
2022/05/27 05:40:43;;;;;;;1.95;1.80;;;;;;;;;;10479698;28;20201;-83
2022/05/27 05:45:44;;;;;;;1.70;1.60;;;;;;;;;;10449652;28;20195;-83
2022/05/27 05:50:45;;;;;;;2.63;1.83;;;;;;;;;;10462739;28;20240;-82
2022/05/27 05:55:46;;;;;;;1.70;1.70;;;;;;;;;;10460229;28;20256;-80
2022/05/27 06:00:47;;;;;;;3.00;2.30;;;;;;;;;;10413873;28;20703;-76
2022/05/27 06:05:48;;;;;;;2.63;2.10;;;;;;;;;;10433994;28;20278;-77
2022/05/27 06:10:49;;;;;;;2.45;2.30;;;;;;;;;;10448136;28;20221;-77
2022/05/27 06:15:50;;;;;;;2.35;2.20;;;;;;;;;;10438307;28;20195;-78
2022/05/27 06:20:51;;;;;;;2.75;2.50;;;;;;;;;;10417974;28;20198;-76
2022/05/27 06:25:57;;;;;;;3.38;3.15;;;;;;;;;;10436522;28;20266;-76
2022/05/27 06:36:18;;;;;;;2.45;2.45;;;;;;;;;;10426495;28;20218;-74
2022/05/27 06:41:19;;;;;;;2.42;2.33;;;;;;;;;;10426616;28;20687;-75
2022/05/27 06:46:21;;;;;;;2.92;2.72;;;;;;;;;;10419029;28;20271;-76
2022/05/27 06:51:22;;;;;;;3.03;2.72;;;;;;;;;;10447009;28;21042;-76
2022/05/27 06:56:23;;;;;;;3.00;2.47;;;;;;;;;;10451909;28;20206;-75
2022/05/27 07:01:24;;;;;;;7.00;2.40;;;;;;;;;;10456052;28;20225;-75
2022/05/27 07:06:31;;;;;;;2.92;2.42;;;;;;;;;;10444065;28;20254;-72
2022/05/27 07:11:32;;;;;;;2.97;2.50;;;;;;;;;;10439336;28;20238;-74
2022/05/27 07:16:33;;;;;;;13.30;4.07;;;;;;;;;;10433927;28;20195;-75
2022/05/27 07:21:39;;;;;;;2.13;2.00;;;;;;;;;;10420269;28;20204;-75
2022/05/27 07:26:40;;;;;;;2.80;2.70;;;;;;;;;;10420205;28;20198;-73
2022/05/27 07:31:42;;;;;;;5.63;2.97;;;;;;;;;;10429088;28;20219;-73
2022/05/27 07:36:43;;;;;;;3.67;1.42;;;;;;;;;;10440408;28;20608;-73
2022/05/27 07:41:44;;;;;;;4.57;2.00;;;;;;;;;;10417788;28;20278;-74
2022/05/27 07:46:45;;;;;;;6.40;2.08;;;;;;;;;;10411242;28;20257;-72
2022/05/27 07:51:46;;;;;;;3.08;1.40;;;;;;;;;;10412211;28;20210;-73
2022/05/27 07:56:48;;;;;;;3.28;1.30;;;;;;;;;;10446055;28;20313;-72
2022/05/27 08:01:49;;;;;;;1.33;1.20;;;;;;;;;;10456737;28;20300;-73
2022/05/27 08:06:50;;;;;;;4.13;1.05;;;;;;;;;;10444001;28;20291;-72
2022/05/27 08:11:51;;;;;;;7.63;1.40;;;;;;;;;;10442672;28;20276;-73
2022/05/27 08:16:52;;;;;;;6.22;1.20;;;;;;;;;;10447866;28;20214;-74
2022/05/27 08:21:53;;;;;;;9.43;1.45;;;;;;;;;;10431397;28;20834;-76
2022/05/27 08:26:54;;;;;;;3.55;1.00;;;;;;;;;;10419795;28;20213;-74
2022/05/27 08:31:55;;;;;;;3.00;0.70;;;;;;;;;;10421724;28;20696;-74
2022/05/27 08:42:31;;;;;;;2.63;0.80;;;;;;;;;;10441476;28;20212;-74
2022/05/27 08:47:39;;;;;;;1.92;0.95;;;;;;;;;;10399197;28;20185;-74
2022/05/27 08:52:45;;;;;;;4.28;1.10;;;;;;;;;;10384970;28;20950;-74
2022/05/27 09:03:07;;;;;;;3.35;1.00;;;;;;;;;;10407619;28;20731;-74
2022/05/27 09:08:20;;;;;;;6.60;1.20;;;;;;;;;;10439253;28;20228;-73
2022/05/27 09:13:27;;;;;;;9.10;1.70;;;;;;;;;;10436753;28;20709;-74
2022/05/27 09:18:29;;;;;;;2.42;0.85;;;;;;;;;;10439649;28;20750;-73
2022/05/27 09:23:30;;;;;;;2.85;0.90;;;;;;;;;;10439497;28;20285;-75
2022/05/27 09:28:37;;;;;;;4.57;0.75;;;;;;;;;;10400224;28;20206;-74
2022/05/27 09:33:39;;;;;;;3.17;0.90;;;;;;;;;;10449011;28;20215;-75
2022/05/27 09:38:48;;;;;;;2.33;1.00;;;;;;;;;;10429316;28;20194;-74
2022/05/27 09:43:54;;;;;;;1.52;0.85;;;;;;;;;;10414808;28;20199;-74
2022/05/27 09:48:57;;;;;;;2.45;0.90;;;;;;;;;;10421220;28;20240;-74
2022/05/27 09:54:05;;;;;;;2.33;1.17;;;;;;;;;;10436517;28;20372;-74
2022/05/27 09:59:23;;;;;;;3.65;1.00;;;;;;;;;;10450798;28;20284;-75
2022/05/27 10:04:24;;;;;;;3.25;1.17;;;;;;;;;;10449246;28;20229;-75
2022/05/27 10:09:30;;;;;;;5.00;1.23;;;;;;;;;;10425234;28;20214;-75
2022/05/27 10:14:37;;;;;;;3.40;0.90;;;;;;;;;;10443998;28;20737;-74
2022/05/27 10:19:42;;;;;;;2.42;0.90;;;;;;;;;;10416984;28;21864;-74
2022/05/27 10:24:44;;;;;;;4.88;1.05;;;;;;;;;;10447268;28;20617;-73
2022/05/27 10:29:59;;;;;;;3.85;0.93;;;;;;;;;;10417860;28;20233;-73
2022/05/27 10:35:01;;;;;;;3.15;0.82;;;;;;;;;;10424780;28;20399;-76
2022/05/27 10:40:17;;;;;;;3.13;0.80;;;;;;;;;;10423021;28;20210;-77
2022/05/27 10:45:38;;;;;;;4.20;1.05;;;;;;;;;;10431500;28;20329;-75
2022/05/27 10:50:54;;;;;;;2.50;0.80;;;;;;;;;;10442123;28;20206;-77
2022/05/27 10:56:14;;;;;;;3.00;0.80;;;;;;;;;;10416469;28;20246;-74
2022/05/27 11:07:02;;;;;;;2.00;1.13;;;;;;;;;;10451294;28;20226;-78
2022/05/27 11:12:09;;;;;;;3.70;0.93;;;;;;;;;;10422391;28;20203;-76
2022/05/27 11:17:29;;;;;;;5.80;0.75;;;;;;;;;;10419632;28;20256;-76
2022/05/27 11:22:55;;;;;;;3.53;1.08;;;;;;;;;;10433232;28;20214;-75
2022/05/27 11:27:59;;;;;;;2.33;1.20;;;;;;;;;;10429539;28;20206;-74
2022/05/27 11:33:07;;;;;;;3.03;1.02;;;;;;;;;;10396930;28;20218;-75
2022/05/27 11:38:27;;;;;;;5.35;0.82;;;;;;;;;;10412832;28;20206;-75
2022/05/27 11:43:38;;;;;;;2.30;0.80;;;;;;;;;;10418674;28;20213;-76
2022/05/27 11:48:58;;;;;;;4.60;0.95;;;;;;;;;;10436738;28;20738;-75
2022/05/27 11:54:11;;;;;;;8.60;1.80;;;;;;;;;;10432549;28;20206;-74
2022/05/27 11:59:21;;;;;;;28.83;1.80;;;;;;;;;;10452572;28;20298;-75
2022/05/27 12:04:41;;;;;;;5.03;0.80;;;;;;;;;;10432975;28;20281;-75
2022/05/27 12:09:50;;;;;;;5.18;1.00;;;;;;;;;;10393963;28;20215;-77
2022/05/27 12:15:02;;;;;;;0.70;0.70;;;;;;;;;;10388853;28;20196;-74
2022/05/27 12:20:03;;;;;;;2.65;0.70;;;;;;;;;;10401599;28;20321;-76
2022/05/27 12:25:10;;;;;;;9.07;1.30;;;;;;;;;;10408773;28;20895;-75
2022/05/27 12:30:13;;;;;;;11.40;1.67;;;;;;;;;;10374820;28;20210;-75
2022/05/27 12:35:32;;;;;;;3.75;0.82;;;;;;;;;;10395389;28;20243;-74
2022/05/27 12:40:38;;;;;;;13.38;1.25;;;;;;;;;;10400567;28;20203;-76
2022/05/27 12:45:52;;;;;;;2.42;0.80;;;;;;;;;;10400061;28;20234;-74
2022/05/27 12:51:01;;;;;;;320.25;22.88;;;;;;;;;;10400543;28;20214;-75
2022/05/27 13:02:17;;;;;;;7.22;0.98;;;;;;;;;;10329163;28;20299;-76
2022/05/27 13:07:41;;;;;;;3.85;1.27;;;;;;;;;;10434529;28;20902;-74
2022/05/27 13:12:45;;;;;;;6.25;0.95;;;;;;;;;;10446441;28;20682;-73
2022/05/27 13:17:49;;;;;;;8.32;0.93;;;;;;;;;;10456343;28;20194;-75
2022/05/27 13:22:56;;;;;;;6.60;1.30;;;;;;;;;;10420342;28;20186;-75
2022/05/27 13:27:59;;;;;;;4.00;1.10;;;;;;;;;;10448199;28;20324;-75
2022/05/27 13:33:08;;;;;;;8.68;1.30;;;;;;;;;;10414327;28;20238;-74
2022/05/27 13:38:11;;;;;;;4.45;0.80;;;;;;;;;;10399981;28;20201;-75
2022/05/27 13:43:17;;;;;;;5.90;0.88;;;;;;;;;;10434232;28;20221;-74
2022/05/27 13:48:31;;;;;;;3.25;1.02;;;;;;;;;;10446721;28;20285;-74
2022/05/27 13:53:32;;;;;;;2.42;1.02;;;;;;;;;;10434750;28;20206;-74
2022/05/27 13:58:35;;;;;;;3.38;1.30;;;;;;;;;;10428876;28;20741;-75
2022/05/27 14:03:42;;;;;;;13.95;1.42;;;;;;;;;;10426462;28;20214;-75
2022/05/27 14:08:45;;;;;;;2.42;0.80;;;;;;;;;;10393742;28;20226;-75
2022/05/27 14:13:54;;;;;;;5.70;1.27;;;;;;;;;;10421592;28;20246;-76
2022/05/27 14:18:57;;;;;;;3.13;0.88;;;;;;;;;;10433688;28;20205;-75
2022/05/27 14:24:00;;;;;;;1.63;0.55;;;;;;;;;;10420897;28;20203;-77
2022/05/27 14:29:01;;;;;;;3.20;0.57;;;;;;;;;;10401654;28;22283;-77
2022/05/27 14:34:03;;;;;;;6.10;0.80;;;;;;;;;;10404846;28;20291;-76
2022/05/27 14:39:05;;;;;;;3.65;1.00;;;;;;;;;;10417513;28;20474;-75
2022/05/27 14:44:17;;;;;;;7.95;1.05;;;;;;;;;;10415740;28;20836;-74
2022/05/27 14:49:29;;;;;;;5.18;0.88;;;;;;;;;;10431749;28;20794;-76
2022/05/27 14:54:30;;;;;;;3.05;0.80;;;;;;;;;;10413954;28;20248;-76
2022/05/27 14:59:35;;;;;;;2.60;0.63;;;;;;;;;;10421700;28;20198;-75
2022/05/27 15:04:36;;;;;;;1.80;0.60;;;;;;;;;;10424753;28;20313;-73
2022/05/27 15:09:37;;;;;;;2.10;0.55;;;;;;;;;;10443208;28;20193;-75
2022/05/27 15:14:42;;;;;;;3.97;0.95;;;;;;;;;;10406868;28;21133;-74
2022/05/27 15:19:45;;;;;;;6.72;0.60;;;;;;;;;;10435571;28;20451;-75
2022/05/27 15:24:56;;;;;;;2.15;0.90;;;;;;;;;;10399106;28;20202;-75
2022/05/27 15:35:32;;;;;;;1.63;0.70;;;;;;;;;;10416329;28;20264;-76
2022/05/27 15:40:34;;;;;;;3.97;0.77;;;;;;;;;;10423828;28;20783;-76
2022/05/27 15:45:35;;;;;;;5.15;0.50;;;;;;;;;;10448222;28;20213;-76
2022/05/27 15:50:36;;;;;;;3.78;0.88;;;;;;;;;;10450921;28;20209;-77
2022/05/27 15:55:37;;;;;;;3.75;0.75;;;;;;;;;;10421543;28;20733;-75
2022/05/27 16:00:39;;;;;;;3.42;0.65;;;;;;;;;;10421933;28;20213;-76
2022/05/27 16:05:40;;;;;;;2.78;0.80;;;;;;;;;;10387115;28;20227;-76
2022/05/27 16:10:42;;;;;;;1.77;0.50;;;;;;;;;;10345306;28;20315;-76
2022/05/27 16:17:50;;;;;;;3.03;0.55;;;;;;;;;;10376875;28;20199;-76
2022/05/27 16:21:04;;;;;;;2.25;0.60;;;;;;;;;;10356502;28;20211;-75
2022/05/27 16:26:05;;;;;;;3.72;0.70;;;;;;;;;;10363835;28;20705;-75
2022/05/27 16:31:06;;;;;;;5.40;0.75;;;;;;;;;;10374416;28;20233;-75
2022/05/27 16:36:07;;;;;;;5.28;0.50;;;;;;;;;;10371599;28;20195;-75
2022/05/27 16:41:08;;;;;;;3.40;0.77;;;;;;;;;;10356609;28;20184;-76
2022/05/27 16:46:09;;;;;;;4.40;0.70;;;;;;;;;;10380814;28;20210;-73
2022/05/27 16:51:11;;;;;;;6.03;0.63;;;;;;;;;;10383691;28;20995;-76
2022/05/27 16:56:12;;;;;;;4.75;0.70;;;;;;;;;;10385855;28;20621;-74
2022/05/27 17:01:13;;;;;;;2.55;0.63;;;;;;;;;;10365688;28;20222;-75
2022/05/27 17:06:17;;;;;;;4.05;1.17;;;;;;;;;;10405430;28;20221;-76
2022/05/27 17:11:19;;;;;;;4.22;0.88;;;;;;;;;;10418608;28;20219;-76
2022/05/27 17:16:20;;;;;;;6.45;0.77;;;;;;;;;;10421137;28;20217;-76
2022/05/27 17:21:21;;;;;;;7.10;0.60;;;;;;;;;;10411205;28;20210;-76
2022/05/27 17:26:22;;;;;;;2.85;0.47;;;;;;;;;;10424306;28;20202;-75
2022/05/27 17:31:24;;;;;;;3.85;1.10;;;;;;;;;;10423381;28;20227;-76
2022/05/27 17:36:25;;;;;;;3.05;0.90;;;;;;;;;;10454699;28;20726;-75
2022/05/27 17:41:26;;;;;;;4.15;0.88;;;;;;;;;;10448960;28;20233;-76
2022/05/27 17:51:20;;;;;;;5.30;0.90;;;;;;;;;;10418951;28;20206;-74
2022/05/27 17:51:52;;;;;;;5.10;0.70;;;;;;;;;;10448389;28;20272;-76
2022/05/27 17:56:56;;;;;;;6.15;0.73;;;;;;;;;;10421856;28;20301;-75
2022/05/27 18:01:58;;;;;;;4.47;0.60;;;;;;;;;;10464294;28;20539;-76
2022/05/27 18:06:59;;;;;;;3.40;0.60;;;;;;;;;;10470132;28;20237;-77
2022/05/27 18:12:00;;;;;;;8.88;1.27;;;;;;;;;;10475378;28;20206;-76
2022/05/27 18:17:01;;;;;;;3.00;0.52;;;;;;;;;;10463170;28;20306;-76
2022/05/27 18:22:02;;;;;;;9.73;1.00;;;;;;;;;;10442381;28;20194;-76
2022/05/27 18:27:03;;;;;;;6.18;0.82;;;;;;;;;;10442094;28;20198;-76
2022/05/27 18:32:05;;;;;;;1.60;0.60;;;;;;;;;;10443535;28;20272;-76
2022/05/27 18:37:06;;;;;;;5.65;0.88;;;;;;;;;;10472053;28;20683;-76
2022/05/27 18:42:07;;;;;;;6.53;1.20;;;;;;;;;;10473071;28;20194;-75
2022/05/27 18:47:08;;;;;;;4.63;0.90;;;;;;;;;;10451231;28;20202;-76
2022/05/27 18:52:09;;;;;;;1.85;0.77;;;;;;;;;;10450697;28;20272;-75
2022/05/27 18:57:10;;;;;;;3.58;0.82;;;;;;;;;;10461948;28;20205;-75
2022/05/27 19:02:12;;;;;;;5.93;1.10;;;;;;;;;;10423264;28;20210;-73
2022/05/27 19:07:13;;;;;;;6.28;0.70;;;;;;;;;;10418056;28;20241;-73
2022/05/27 19:12:14;;;;;;;6.97;1.23;;;;;;;;;;10466130;28;20263;-72
2022/05/27 19:17:17;;;;;;;3.55;0.98;;;;;;;;;;10469891;28;20194;-72
2022/05/27 19:22:18;;;;;;;11.88;0.93;;;;;;;;;;10450162;28;20202;-75
2022/05/27 19:27:19;;;;;;;6.60;0.75;;;;;;;;;;10466904;28;20248;-73
2022/05/27 19:32:20;;;;;;;5.53;0.70;;;;;;;;;;10452567;28;20218;-74
2022/05/27 19:37:25;;;;;;;5.22;0.65;;;;;;;;;;10449502;28;20235;-74
2022/05/27 19:42:26;;;;;;;6.47;0.82;;;;;;;;;;10441577;28;20206;-73
2022/05/27 19:47:27;;;;;;;10.23;0.98;;;;;;;;;;10433775;28;20270;-71
2022/05/27 19:52:28;;;;;;;3.50;0.70;;;;;;;;;;10464184;28;20202;-73
2022/05/27 20:08:09;;;;;;;4.35;0.68;;;;;;;;;;10390966;28;20228;-73
2022/05/27 20:13:10;;;;;;;1.10;0.63;;;;;;;;;;10413018;28;20210;-73
2022/05/27 20:18:11;;;;;;;5.20;0.77;;;;;;;;;;10419713;28;20620;-73
2022/05/27 20:23:13;;;;;;;1.77;0.70;;;;;;;;;;10380893;28;21248;-73
2022/05/27 20:28:14;;;;;;;4.15;0.90;;;;;;;;;;10388585;28;20882;-73
2022/05/27 20:33:15;;;;;;;4.07;1.17;;;;;;;;;;10379879;28;20257;-73
2022/05/27 20:38:16;;;;;;;6.20;0.80;;;;;;;;;;10401142;28;20202;-72
2022/05/27 20:43:17;;;;;;;2.72;0.90;;;;;;;;;;10423667;28;20281;-73
2022/05/27 20:48:19;;;;;;;6.82;0.80;;;;;;;;;;10421451;28;20202;-74
2022/05/27 20:53:20;;;;;;;2.78;0.70;;;;;;;;;;10420410;28;20269;-74
2022/05/27 20:58:21;;;;;;;4.90;0.98;;;;;;;;;;10394918;28;20214;-74
2022/05/27 21:03:23;;;;;;;5.57;1.10;;;;;;;;;;10372852;28;20227;-75
2022/05/27 21:13:44;;;;;;;4.68;0.93;;;;;;;;;;10465445;28;20206;-74
2022/05/27 21:18:46;;;;;;;3.22;1.15;;;;;;;;;;10464309;28;20683;-74
2022/05/27 21:23:47;;;;;;;2.97;0.80;;;;;;;;;;10447812;28;20202;-74
2022/05/27 21:28:48;;;;;;;4.13;0.65;;;;;;;;;;10467483;28;20694;-74
2022/05/27 21:33:49;;;;;;;3.70;0.60;;;;;;;;;;10446316;28;20246;-74
2022/05/27 21:38:50;;;;;;;5.53;0.93;;;;;;;;;;10420381;28;20221;-74
2022/05/27 21:43:51;;;;;;;6.50;1.08;;;;;;;;;;10461747;28;20198;-74
2022/05/27 21:48:55;;;;;;;4.13;0.70;;;;;;;;;;10446451;28;20232;-74
2022/05/27 21:53:57;;;;;;;4.63;0.75;;;;;;;;;;10446075;28;20329;-75
2022/05/27 21:58:58;;;;;;;8.85;0.98;;;;;;;;;;10437211;28;20907;-73
2022/05/27 22:03:59;;;;;;;4.97;0.90;;;;;;;;;;10423182;28;20210;-74
2022/05/27 22:09:00;;;;;;;2.35;0.73;;;;;;;;;;10398823;28;20269;-76
2022/05/27 22:14:01;;;;;;;5.45;0.82;;;;;;;;;;10384651;28;20774;-74
2022/05/27 22:19:02;;;;;;;6.40;0.73;;;;;;;;;;10411194;28;20222;-73
2022/05/27 22:24:04;;;;;;;3.92;1.10;;;;;;;;;;10398156;28;20210;-74
2022/05/27 22:29:05;;;;;;;4.10;1.15;;;;;;;;;;10413859;28;20214;-73
2022/05/27 22:34:06;;;;;;;5.07;1.17;;;;;;;;;;10412026;28;20222;-73
2022/05/27 22:39:07;;;;;;;3.35;0.90;;;;;;;;;;10381659;28;20222;-74
2022/05/27 22:44:08;;;;;;;3.80;1.05;;;;;;;;;;10401961;28;20192;-74
2022/05/27 22:49:10;;;;;;;2.47;0.90;;;;;;;;;;10366415;28;20193;-74
2022/05/27 22:54:12;;;;;;;4.50;0.70;;;;;;;;;;10401829;28;20222;-74
2022/05/27 22:59:13;;;;;;;5.03;0.90;;;;;;;;;;10425761;28;20198;-75
2022/05/27 23:04:14;;;;;;;4.45;0.75;;;;;;;;;;10397684;28;20413;-73
2022/05/27 23:09:15;;;;;;;3.08;0.93;;;;;;;;;;10458347;28;20737;-73
2022/05/27 23:19:36;;;;;;;5.47;0.73;;;;;;;;;;10451960;28;20205;-76
2022/05/27 23:24:37;;;;;;;5.00;0.60;;;;;;;;;;10440499;28;20314;-76
2022/05/27 23:29:38;;;;;;;2.47;0.50;;;;;;;;;;10463032;28;20202;-76
2022/05/27 23:34:40;;;;;;;3.35;0.50;;;;;;;;;;10434221;28;20250;-76
2022/05/27 23:39:41;;;;;;;1.58;0.60;;;;;;;;;;10453751;28;20783;-76
2022/05/27 23:44:42;;;;;;;5.03;0.40;;;;;;;;;;10464065;28;20225;-75
2022/05/27 23:49:43;;;;;;;3.58;0.50;;;;;;;;;;10458242;28;20297;-75
2022/05/27 23:54:44;;;;;;;0.90;0.50;;;;;;;;;;10432235;28;20267;-75
2022/05/27 23:59:45;;;;;;;1.80;0.40;;;;;;;;;;10439479;28;20211;-74
